sensor_id;sensor_type;location;lat;lon;timestamp;P1;durP1;ratioP1;P2;durP2;ratioP2
69280;SDS011;56392;51.082;17.080;2023-11-21T00:03:21;9.75;;;2.45;;
69280;SDS011;56392;51.082;17.080;2023-11-21T00:08:46;12.50;;;2.77;;
69280;SDS011;56392;51.082;17.080;2023-11-21T00:14:10;8.77;;;2.47;;
69280;SDS011;56392;51.082;17.080;2023-11-21T00:19:33;10.70;;;2.20;;
69280;SDS011;56392;51.082;17.080;2023-11-21T00:24:58;10.10;;;2.30;;
69280;SDS011;56392;51.082;17.080;2023-11-21T00:30:21;8.85;;;2.20;;
69280;SDS011;56392;51.082;17.080;2023-11-21T00:35:44;8.68;;;2.20;;
69280;SDS011;56392;51.082;17.080;2023-11-21T00:41:09;9.83;;;2.60;;
69280;SDS011;56392;51.082;17.080;2023-11-21T00:46:32;8.33;;;1.97;;
69280;SDS011;56392;51.082;17.080;2023-11-21T00:51:55;8.10;;;2.22;;
69280;SDS011;56392;51.082;17.080;2023-11-21T00:57:20;7.15;;;2.00;;
69280;SDS011;56392;51.082;17.080;2023-11-21T01:02:43;6.53;;;1.83;;
69280;SDS011;56392;51.082;17.080;2023-11-21T01:08:07;8.82;;;2.05;;
69280;SDS011;56392;51.082;17.080;2023-11-21T01:13:33;11.27;;;2.30;;
69280;SDS011;56392;51.082;17.080;2023-11-21T01:18:59;10.70;;;2.30;;
69280;SDS011;56392;51.082;17.080;2023-11-21T01:24:23;12.38;;;2.00;;
69280;SDS011;56392;51.082;17.080;2023-11-21T01:29:48;10.98;;;2.30;;
69280;SDS011;56392;51.082;17.080;2023-11-21T01:35:17;11.63;;;2.73;;
69280;SDS011;56392;51.082;17.080;2023-11-21T01:40:40;9.53;;;2.63;;
69280;SDS011;56392;51.082;17.080;2023-11-21T01:46:05;7.78;;;1.75;;
69280;SDS011;56392;51.082;17.080;2023-11-21T01:51:29;10.38;;;2.70;;
69280;SDS011;56392;51.082;17.080;2023-11-21T01:56:52;9.27;;;2.00;;
69280;SDS011;56392;51.082;17.080;2023-11-21T02:02:17;7.25;;;2.20;;
69280;SDS011;56392;51.082;17.080;2023-11-21T02:07:41;7.63;;;2.05;;
69280;SDS011;56392;51.082;17.080;2023-11-21T02:13:05;8.57;;;2.20;;
69280;SDS011;56392;51.082;17.080;2023-11-21T02:18:29;7.20;;;2.03;;
69280;SDS011;56392;51.082;17.080;2023-11-21T02:23:54;9.73;;;2.60;;
69280;SDS011;56392;51.082;17.080;2023-11-21T02:29:17;8.40;;;2.20;;
69280;SDS011;56392;51.082;17.080;2023-11-21T02:34:43;8.93;;;2.67;;
69280;SDS011;56392;51.082;17.080;2023-11-21T02:40:09;10.60;;;2.95;;
69280;SDS011;56392;51.082;17.080;2023-11-21T02:45:34;14.80;;;2.60;;
69280;SDS011;56392;51.082;17.080;2023-11-21T02:50:58;8.47;;;2.43;;
69280;SDS011;56392;51.082;17.080;2023-11-21T02:56:22;10.57;;;3.10;;
69280;SDS011;56392;51.082;17.080;2023-11-21T03:01:45;10.68;;;2.80;;
69280;SDS011;56392;51.082;17.080;2023-11-21T03:07:08;9.90;;;3.10;;
69280;SDS011;56392;51.082;17.080;2023-11-21T03:12:33;11.60;;;3.15;;
69280;SDS011;56392;51.082;17.080;2023-11-21T03:17:57;12.40;;;3.20;;
69280;SDS011;56392;51.082;17.080;2023-11-21T03:23:20;11.33;;;3.23;;
69280;SDS011;56392;51.082;17.080;2023-11-21T03:28:44;10.80;;;3.20;;
69280;SDS011;56392;51.082;17.080;2023-11-21T03:34:10;10.20;;;3.45;;
69280;SDS011;56392;51.082;17.080;2023-11-21T03:39:38;11.63;;;3.50;;
69280;SDS011;56392;51.082;17.080;2023-11-21T03:45:04;17.20;;;3.60;;
69280;SDS011;56392;51.082;17.080;2023-11-21T03:50:27;13.63;;;3.65;;
69280;SDS011;56392;51.082;17.080;2023-11-21T03:55:51;11.35;;;3.28;;
69280;SDS011;56392;51.082;17.080;2023-11-21T04:01:21;9.40;;;3.17;;
69280;SDS011;56392;51.082;17.080;2023-11-21T04:06:44;11.20;;;3.40;;
69280;SDS011;56392;51.082;17.080;2023-11-21T04:12:07;10.82;;;3.22;;
69280;SDS011;56392;51.082;17.080;2023-11-21T04:17:33;10.63;;;3.10;;
69280;SDS011;56392;51.082;17.080;2023-11-21T04:22:56;9.53;;;2.83;;
69280;SDS011;56392;51.082;17.080;2023-11-21T04:28:18;13.90;;;3.38;;
69280;SDS011;56392;51.082;17.080;2023-11-21T04:33:43;11.98;;;3.58;;
69280;SDS011;56392;51.082;17.080;2023-11-21T04:39:07;10.10;;;2.73;;
69280;SDS011;56392;51.082;17.080;2023-11-21T04:44:30;8.75;;;2.70;;
69280;SDS011;56392;51.082;17.080;2023-11-21T04:49:54;10.05;;;3.40;;
69280;SDS011;56392;51.082;17.080;2023-11-21T04:55:17;8.23;;;2.90;;
69280;SDS011;56392;51.082;17.080;2023-11-21T05:00:41;10.32;;;2.90;;
69280;SDS011;56392;51.082;17.080;2023-11-21T05:06:05;13.57;;;3.22;;
69280;SDS011;56392;51.082;17.080;2023-11-21T05:11:29;10.93;;;3.67;;
69280;SDS011;56392;51.082;17.080;2023-11-21T05:16:53;9.67;;;3.17;;
69280;SDS011;56392;51.082;17.080;2023-11-21T05:22:18;11.15;;;3.47;;
69280;SDS011;56392;51.082;17.080;2023-11-21T05:27:41;11.15;;;3.65;;
69280;SDS011;56392;51.082;17.080;2023-11-21T05:33:04;11.53;;;3.67;;
69280;SDS011;56392;51.082;17.080;2023-11-21T05:38:29;13.05;;;3.88;;
69280;SDS011;56392;51.082;17.080;2023-11-21T05:43:52;12.30;;;3.90;;
69280;SDS011;56392;51.082;17.080;2023-11-21T05:49:15;13.70;;;4.20;;
69280;SDS011;56392;51.082;17.080;2023-11-21T05:54:40;9.93;;;3.08;;
69280;SDS011;56392;51.082;17.080;2023-11-21T06:00:03;13.52;;;3.53;;
69280;SDS011;56392;51.082;17.080;2023-11-21T06:05:33;14.40;;;3.73;;
69280;SDS011;56392;51.082;17.080;2023-11-21T06:10:57;9.57;;;3.93;;
69280;SDS011;56392;51.082;17.080;2023-11-21T06:16:21;13.20;;;3.70;;
69280;SDS011;56392;51.082;17.080;2023-11-21T06:21:45;13.25;;;3.90;;
69280;SDS011;56392;51.082;17.080;2023-11-21T06:27:10;13.77;;;3.50;;
69280;SDS011;56392;51.082;17.080;2023-11-21T06:32:33;11.50;;;3.83;;
69280;SDS011;56392;51.082;17.080;2023-11-21T06:37:57;15.70;;;3.95;;
69280;SDS011;56392;51.082;17.080;2023-11-21T06:43:21;9.90;;;3.10;;
69280;SDS011;56392;51.082;17.080;2023-11-21T06:48:44;13.50;;;3.85;;
69280;SDS011;56392;51.082;17.080;2023-11-21T06:54:08;11.88;;;3.85;;
69280;SDS011;56392;51.082;17.080;2023-11-21T06:59:32;11.47;;;3.77;;
69280;SDS011;56392;51.082;17.080;2023-11-21T07:04:56;14.40;;;3.83;;
69280;SDS011;56392;51.082;17.080;2023-11-21T07:10:19;12.27;;;4.57;;
69280;SDS011;56392;51.082;17.080;2023-11-21T07:15:44;14.40;;;4.70;;
69280;SDS011;56392;51.082;17.080;2023-11-21T07:21:07;14.77;;;4.77;;
69280;SDS011;56392;51.082;17.080;2023-11-21T07:26:33;13.63;;;4.47;;
69280;SDS011;56392;51.082;17.080;2023-11-21T07:31:58;16.85;;;4.88;;
69280;SDS011;56392;51.082;17.080;2023-11-21T07:37:22;13.83;;;5.27;;
69280;SDS011;56392;51.082;17.080;2023-11-21T07:42:45;12.68;;;4.55;;
69280;SDS011;56392;51.082;17.080;2023-11-21T07:48:09;14.55;;;5.05;;
69280;SDS011;56392;51.082;17.080;2023-11-21T07:53:32;10.87;;;5.00;;
69280;SDS011;56392;51.082;17.080;2023-11-21T07:58:55;14.63;;;4.60;;
69280;SDS011;56392;51.082;17.080;2023-11-21T08:04:20;14.77;;;4.93;;
69280;SDS011;56392;51.082;17.080;2023-11-21T08:09:43;14.93;;;4.78;;
69280;SDS011;56392;51.082;17.080;2023-11-21T08:15:08;11.80;;;4.67;;
69280;SDS011;56392;51.082;17.080;2023-11-21T08:20:33;16.73;;;4.90;;
69280;SDS011;56392;51.082;17.080;2023-11-21T08:25:58;11.43;;;4.82;;
69280;SDS011;56392;51.082;17.080;2023-11-21T08:31:23;13.73;;;4.90;;
69280;SDS011;56392;51.082;17.080;2023-11-21T08:36:48;13.57;;;4.45;;
69280;SDS011;56392;51.082;17.080;2023-11-21T08:42:12;13.65;;;4.85;;
69280;SDS011;56392;51.082;17.080;2023-11-21T08:47:35;13.50;;;4.53;;
69280;SDS011;56392;51.082;17.080;2023-11-21T08:53:00;15.10;;;4.93;;
69280;SDS011;56392;51.082;17.080;2023-11-21T08:58:23;13.23;;;4.93;;
69280;SDS011;56392;51.082;17.080;2023-11-21T09:03:46;20.00;;;5.53;;
69280;SDS011;56392;51.082;17.080;2023-11-21T09:09:12;17.00;;;6.03;;
69280;SDS011;56392;51.082;17.080;2023-11-21T09:14:36;14.23;;;5.60;;
69280;SDS011;56392;51.082;17.080;2023-11-21T09:19:59;15.05;;;5.38;;
69280;SDS011;56392;51.082;17.080;2023-11-21T09:25:23;16.07;;;5.53;;
69280;SDS011;56392;51.082;17.080;2023-11-21T09:30:46;14.30;;;4.63;;
69280;SDS011;56392;51.082;17.080;2023-11-21T09:36:13;13.43;;;4.70;;
69280;SDS011;56392;51.082;17.080;2023-11-21T09:41:43;10.87;;;4.30;;
69280;SDS011;56392;51.082;17.080;2023-11-21T09:47:07;9.30;;;3.90;;
69280;SDS011;56392;51.082;17.080;2023-11-21T09:52:33;11.50;;;4.63;;
69280;SDS011;56392;51.082;17.080;2023-11-21T09:58:08;11.13;;;3.42;;
69280;SDS011;56392;51.082;17.080;2023-11-21T10:03:35;8.13;;;3.00;;
69280;SDS011;56392;51.082;17.080;2023-11-21T10:09:00;11.00;;;3.50;;
69280;SDS011;56392;51.082;17.080;2023-11-21T10:14:26;12.20;;;3.55;;
69280;SDS011;56392;51.082;17.080;2023-11-21T10:19:50;9.33;;;3.30;;
69280;SDS011;56392;51.082;17.080;2023-11-21T10:25:15;9.65;;;3.47;;
69280;SDS011;56392;51.082;17.080;2023-11-21T10:30:43;8.43;;;3.42;;
69280;SDS011;56392;51.082;17.080;2023-11-21T10:36:07;10.30;;;4.00;;
69280;SDS011;56392;51.082;17.080;2023-11-21T10:41:32;8.43;;;3.67;;
69280;SDS011;56392;51.082;17.080;2023-11-21T10:46:58;10.57;;;4.00;;
69280;SDS011;56392;51.082;17.080;2023-11-21T10:52:26;10.30;;;3.63;;
69280;SDS011;56392;51.082;17.080;2023-11-21T10:57:52;15.37;;;6.30;;
69280;SDS011;56392;51.082;17.080;2023-11-21T11:03:17;18.92;;;7.22;;
69280;SDS011;56392;51.082;17.080;2023-11-21T11:08:41;23.77;;;10.65;;
69280;SDS011;56392;51.082;17.080;2023-11-21T11:14:04;25.90;;;11.63;;
69280;SDS011;56392;51.082;17.080;2023-11-21T11:19:29;26.63;;;11.52;;
69280;SDS011;56392;51.082;17.080;2023-11-21T11:24:57;28.45;;;11.63;;
69280;SDS011;56392;51.082;17.080;2023-11-21T11:30:39;26.50;;;11.00;;
69280;SDS011;56392;51.082;17.080;2023-11-21T11:36:13;27.83;;;12.03;;
69280;SDS011;56392;51.082;17.080;2023-11-21T11:41:43;24.90;;;11.45;;
69280;SDS011;56392;51.082;17.080;2023-11-21T11:47:12;30.00;;;12.68;;
69280;SDS011;56392;51.082;17.080;2023-11-21T11:52:38;33.37;;;12.90;;
69280;SDS011;56392;51.082;17.080;2023-11-21T11:58:04;29.88;;;12.55;;
69280;SDS011;56392;51.082;17.080;2023-11-21T12:03:28;29.20;;;13.07;;
69280;SDS011;56392;51.082;17.080;2023-11-21T12:08:53;30.50;;;13.53;;
69280;SDS011;56392;51.082;17.080;2023-11-21T12:14:16;30.13;;;12.88;;
69280;SDS011;56392;51.082;17.080;2023-11-21T12:19:40;29.88;;;13.02;;
69280;SDS011;56392;51.082;17.080;2023-11-21T12:25:05;27.47;;;12.43;;
69280;SDS011;56392;51.082;17.080;2023-11-21T12:30:29;31.73;;;13.37;;
69280;SDS011;56392;51.082;17.080;2023-11-21T12:35:53;26.13;;;12.00;;
69280;SDS011;56392;51.082;17.080;2023-11-21T12:41:17;28.25;;;12.23;;
69280;SDS011;56392;51.082;17.080;2023-11-21T12:46:43;29.30;;;12.27;;
69280;SDS011;56392;51.082;17.080;2023-11-21T12:52:09;25.65;;;11.85;;
69280;SDS011;56392;51.082;17.080;2023-11-21T12:57:34;23.17;;;10.13;;
69280;SDS011;56392;51.082;17.080;2023-11-21T13:02:59;18.23;;;8.60;;
69280;SDS011;56392;51.082;17.080;2023-11-21T13:08:23;18.15;;;8.68;;
69280;SDS011;56392;51.082;17.080;2023-11-21T13:13:51;18.23;;;8.35;;
69280;SDS011;56392;51.082;17.080;2023-11-21T13:19:15;16.10;;;7.17;;
69280;SDS011;56392;51.082;17.080;2023-11-21T13:24:38;14.53;;;7.27;;
69280;SDS011;56392;51.082;17.080;2023-11-21T13:30:06;15.88;;;6.88;;
69280;SDS011;56392;51.082;17.080;2023-11-21T13:35:32;13.80;;;6.53;;
69280;SDS011;56392;51.082;17.080;2023-11-21T13:40:59;14.37;;;6.43;;
69280;SDS011;56392;51.082;17.080;2023-11-21T13:46:24;16.08;;;6.65;;
69280;SDS011;56392;51.082;17.080;2023-11-21T13:51:48;13.30;;;5.60;;
69280;SDS011;56392;51.082;17.080;2023-11-21T13:57:14;13.53;;;5.37;;
69280;SDS011;56392;51.082;17.080;2023-11-21T14:02:40;13.20;;;6.25;;
69280;SDS011;56392;51.082;17.080;2023-11-21T14:08:05;13.93;;;6.43;;
69280;SDS011;56392;51.082;17.080;2023-11-21T14:13:28;12.57;;;6.60;;
69280;SDS011;56392;51.082;17.080;2023-11-21T14:18:54;14.13;;;5.87;;
69280;SDS011;56392;51.082;17.080;2023-11-21T14:24:23;12.45;;;5.20;;
69280;SDS011;56392;51.082;17.080;2023-11-21T14:29:46;10.73;;;4.55;;
69280;SDS011;56392;51.082;17.080;2023-11-21T14:35:11;10.80;;;5.50;;
69280;SDS011;56392;51.082;17.080;2023-11-21T14:40:36;12.30;;;5.93;;
69280;SDS011;56392;51.082;17.080;2023-11-21T14:45:59;15.43;;;6.50;;
69280;SDS011;56392;51.082;17.080;2023-11-21T14:51:25;12.47;;;5.77;;
69280;SDS011;56392;51.082;17.080;2023-11-21T14:56:48;12.80;;;6.00;;
69280;SDS011;56392;51.082;17.080;2023-11-21T15:02:12;12.23;;;6.03;;
69280;SDS011;56392;51.082;17.080;2023-11-21T15:07:44;11.23;;;5.43;;
69280;SDS011;56392;51.082;17.080;2023-11-21T15:13:07;11.37;;;5.30;;
69280;SDS011;56392;51.082;17.080;2023-11-21T15:18:32;15.13;;;6.35;;
69280;SDS011;56392;51.082;17.080;2023-11-21T15:23:58;14.15;;;6.60;;
69280;SDS011;56392;51.082;17.080;2023-11-21T15:29:21;13.33;;;6.43;;
69280;SDS011;56392;51.082;17.080;2023-11-21T15:34:46;15.40;;;7.18;;
69280;SDS011;56392;51.082;17.080;2023-11-21T15:40:13;14.23;;;6.63;;
69280;SDS011;56392;51.082;17.080;2023-11-21T15:45:38;15.57;;;6.87;;
69280;SDS011;56392;51.082;17.080;2023-11-21T15:51:02;14.15;;;7.28;;
69280;SDS011;56392;51.082;17.080;2023-11-21T15:56:29;14.73;;;7.50;;
69280;SDS011;56392;51.082;17.080;2023-11-21T16:01:54;14.17;;;7.17;;
69280;SDS011;56392;51.082;17.080;2023-11-21T16:07:18;14.90;;;6.83;;
69280;SDS011;56392;51.082;17.080;2023-11-21T16:12:43;17.15;;;7.22;;
69280;SDS011;56392;51.082;17.080;2023-11-21T16:18:06;17.17;;;7.85;;
69280;SDS011;56392;51.082;17.080;2023-11-21T16:23:29;18.27;;;7.63;;
69280;SDS011;56392;51.082;17.080;2023-11-21T16:28:54;16.83;;;7.35;;
69280;SDS011;56392;51.082;17.080;2023-11-21T16:34:18;15.23;;;7.43;;
69280;SDS011;56392;51.082;17.080;2023-11-21T16:39:42;14.80;;;6.00;;
69280;SDS011;56392;51.082;17.080;2023-11-21T16:45:07;13.70;;;6.20;;
69280;SDS011;56392;51.082;17.080;2023-11-21T16:50:31;13.18;;;6.25;;
69280;SDS011;56392;51.082;17.080;2023-11-21T16:55:54;13.47;;;6.00;;
69280;SDS011;56392;51.082;17.080;2023-11-21T17:01:18;14.20;;;7.10;;
69280;SDS011;56392;51.082;17.080;2023-11-21T17:06:46;15.38;;;7.30;;
69280;SDS011;56392;51.082;17.080;2023-11-21T17:12:09;14.57;;;6.30;;
69280;SDS011;56392;51.082;17.080;2023-11-21T17:17:34;15.70;;;7.70;;
69280;SDS011;56392;51.082;17.080;2023-11-21T17:22:58;16.92;;;7.63;;
69280;SDS011;56392;51.082;17.080;2023-11-21T17:28:24;17.73;;;8.40;;
69280;SDS011;56392;51.082;17.080;2023-11-21T17:33:48;20.10;;;9.03;;
69280;SDS011;56392;51.082;17.080;2023-11-21T17:39:11;17.95;;;8.93;;
69280;SDS011;56392;51.082;17.080;2023-11-21T17:44:35;20.73;;;9.52;;
69280;SDS011;56392;51.082;17.080;2023-11-21T17:49:59;22.27;;;9.47;;
69280;SDS011;56392;51.082;17.080;2023-11-21T17:55:23;19.77;;;9.33;;
69280;SDS011;56392;51.082;17.080;2023-11-21T18:00:46;20.95;;;9.38;;
69280;SDS011;56392;51.082;17.080;2023-11-21T18:06:11;19.87;;;9.03;;
69280;SDS011;56392;51.082;17.080;2023-11-21T18:11:35;20.30;;;9.53;;
69280;SDS011;56392;51.082;17.080;2023-11-21T18:16:58;25.02;;;11.02;;
69280;SDS011;56392;51.082;17.080;2023-11-21T18:22:24;21.67;;;10.80;;
69280;SDS011;56392;51.082;17.080;2023-11-21T18:27:49;23.67;;;11.00;;
69280;SDS011;56392;51.082;17.080;2023-11-21T18:33:12;22.85;;;11.02;;
69280;SDS011;56392;51.082;17.080;2023-11-21T18:38:36;24.45;;;11.07;;
69280;SDS011;56392;51.082;17.080;2023-11-21T18:44:01;22.47;;;10.73;;
69280;SDS011;56392;51.082;17.080;2023-11-21T18:49:24;24.17;;;10.90;;
69280;SDS011;56392;51.082;17.080;2023-11-21T18:54:49;23.00;;;10.93;;
69280;SDS011;56392;51.082;17.080;2023-11-21T19:00:13;26.70;;;12.00;;
69280;SDS011;56392;51.082;17.080;2023-11-21T19:05:38;28.33;;;12.15;;
69280;SDS011;56392;51.082;17.080;2023-11-21T19:11:04;23.90;;;11.63;;
69280;SDS011;56392;51.082;17.080;2023-11-21T19:16:27;27.80;;;12.33;;
69280;SDS011;56392;51.082;17.080;2023-11-21T19:21:50;30.17;;;13.20;;
69280;SDS011;56392;51.082;17.080;2023-11-21T19:27:19;30.70;;;13.85;;
69280;SDS011;56392;51.082;17.080;2023-11-21T19:32:42;29.27;;;13.87;;
69280;SDS011;56392;51.082;17.080;2023-11-21T19:38:06;30.67;;;13.95;;
69280;SDS011;56392;51.082;17.080;2023-11-21T19:43:32;32.83;;;14.57;;
69280;SDS011;56392;51.082;17.080;2023-11-21T19:48:55;34.27;;;14.37;;
69280;SDS011;56392;51.082;17.080;2023-11-21T19:54:19;31.15;;;15.05;;
69280;SDS011;56392;51.082;17.080;2023-11-21T19:59:45;33.10;;;14.87;;
69280;SDS011;56392;51.082;17.080;2023-11-21T20:05:09;28.97;;;13.20;;
69280;SDS011;56392;51.082;17.080;2023-11-21T20:10:36;28.02;;;13.77;;
69280;SDS011;56392;51.082;17.080;2023-11-21T20:16:01;29.30;;;13.75;;
69280;SDS011;56392;51.082;17.080;2023-11-21T20:21:24;31.07;;;13.23;;
69280;SDS011;56392;51.082;17.080;2023-11-21T20:26:47;31.88;;;14.35;;
69280;SDS011;56392;51.082;17.080;2023-11-21T20:32:11;33.03;;;14.40;;
69280;SDS011;56392;51.082;17.080;2023-11-21T20:37:35;29.10;;;13.70;;
69280;SDS011;56392;51.082;17.080;2023-11-21T20:42:58;29.70;;;13.63;;
69280;SDS011;56392;51.082;17.080;2023-11-21T20:48:26;29.87;;;13.67;;
69280;SDS011;56392;51.082;17.080;2023-11-21T20:53:50;29.23;;;13.80;;
69280;SDS011;56392;51.082;17.080;2023-11-21T20:59:14;31.27;;;13.52;;
69280;SDS011;56392;51.082;17.080;2023-11-21T21:04:39;31.67;;;13.73;;
69280;SDS011;56392;51.082;17.080;2023-11-21T21:10:05;31.07;;;14.83;;
69280;SDS011;56392;51.082;17.080;2023-11-21T21:15:31;30.02;;;14.27;;
69280;SDS011;56392;51.082;17.080;2023-11-21T21:20:56;31.03;;;13.63;;
69280;SDS011;56392;51.082;17.080;2023-11-21T21:26:22;28.93;;;14.03;;
69280;SDS011;56392;51.082;17.080;2023-11-21T21:31:45;27.20;;;13.27;;
69280;SDS011;56392;51.082;17.080;2023-11-21T21:37:09;27.57;;;12.47;;
69280;SDS011;56392;51.082;17.080;2023-11-21T21:42:33;30.67;;;13.77;;
69280;SDS011;56392;51.082;17.080;2023-11-21T21:47:56;31.60;;;14.95;;
69280;SDS011;56392;51.082;17.080;2023-11-21T21:53:20;31.67;;;14.57;;
69280;SDS011;56392;51.082;17.080;2023-11-21T21:58:43;31.47;;;13.23;;
69280;SDS011;56392;51.082;17.080;2023-11-21T22:04:07;32.10;;;14.48;;
69280;SDS011;56392;51.082;17.080;2023-11-21T22:09:33;34.80;;;15.30;;
69280;SDS011;56392;51.082;17.080;2023-11-21T22:14:57;34.00;;;14.40;;
69280;SDS011;56392;51.082;17.080;2023-11-21T22:20:21;51.25;;;18.00;;
69280;SDS011;56392;51.082;17.080;2023-11-21T22:25:45;38.10;;;15.87;;
69280;SDS011;56392;51.082;17.080;2023-11-21T22:31:09;36.63;;;16.17;;
69280;SDS011;56392;51.082;17.080;2023-11-21T22:36:33;35.95;;;15.73;;
69280;SDS011;56392;51.082;17.080;2023-11-21T22:41:58;32.63;;;15.07;;
69280;SDS011;56392;51.082;17.080;2023-11-21T22:47:22;35.80;;;16.07;;
69280;SDS011;56392;51.082;17.080;2023-11-21T22:52:45;38.35;;;16.30;;
69280;SDS011;56392;51.082;17.080;2023-11-21T22:58:12;39.57;;;16.17;;
69280;SDS011;56392;51.082;17.080;2023-11-21T23:03:35;37.30;;;15.57;;
69280;SDS011;56392;51.082;17.080;2023-11-21T23:08:58;34.30;;;14.57;;
69280;SDS011;56392;51.082;17.080;2023-11-21T23:14:22;37.20;;;15.77;;
69280;SDS011;56392;51.082;17.080;2023-11-21T23:19:48;33.50;;;15.00;;
69280;SDS011;56392;51.082;17.080;2023-11-21T23:25:11;35.13;;;15.38;;
69280;SDS011;56392;51.082;17.080;2023-11-21T23:30:42;36.17;;;15.73;;
69280;SDS011;56392;51.082;17.080;2023-11-21T23:36:05;37.75;;;16.58;;
69280;SDS011;56392;51.082;17.080;2023-11-21T23:41:29;39.08;;;16.15;;
69280;SDS011;56392;51.082;17.080;2023-11-21T23:46:54;40.10;;;16.93;;
69280;SDS011;56392;51.082;17.080;2023-11-21T23:52:17;38.67;;;16.58;;
69280;SDS011;56392;51.082;17.080;2023-11-21T23:57:40;38.73;;;16.87;;
